createdAt,value
2018-09-02T12:36:44.757Z,27
2018-09-02T12:41:47.249Z,28
2018-09-02T12:46:49.675Z,28
2018-09-02T12:51:52.221Z,28
2018-09-02T12:56:54.603Z,28
2018-09-02T13:01:57.066Z,35
2018-09-02T13:07:00.382Z,33
2018-09-02T13:17:04.418Z,29
2018-09-02T13:22:06.955Z,36
2018-09-02T13:27:09.437Z,35
2018-09-02T13:32:12.007Z,31
2018-09-02T13:37:14.331Z,30
2018-09-02T13:42:16.717Z,31
2018-09-02T13:47:19.303Z,28
2018-09-02T13:52:21.650Z,28
2018-09-02T13:57:24.131Z,31
2018-09-02T14:02:26.578Z,27
2018-09-02T14:07:29.010Z,30
2018-09-02T14:12:31.453Z,27
2018-09-02T14:17:33.916Z,28
2018-09-02T14:22:36.375Z,29
2018-09-02T14:27:38.848Z,32
2018-09-02T14:32:41.293Z,30
2018-09-02T14:37:43.755Z,35
2018-09-02T14:42:46.231Z,34
2018-09-02T14:47:48.663Z,32
2018-09-02T14:52:51.352Z,35
2018-09-02T14:57:53.664Z,32
2018-09-02T15:02:56.060Z,36
2018-09-02T15:07:58.519Z,37
2018-09-02T15:13:01.484Z,39
2018-09-02T15:18:03.428Z,45
2018-09-02T15:23:05.871Z,39
2018-09-02T15:28:08.360Z,38
2018-09-02T15:33:10.784Z,41
2018-09-02T15:38:13.358Z,40
2018-09-02T15:43:15.701Z,38
2018-09-02T15:53:20.628Z,38
2018-09-02T15:58:23.103Z,37
2018-09-02T16:03:25.815Z,39
2018-09-02T16:08:28.516Z,44
2018-09-02T16:13:31.584Z,46
2018-09-02T16:18:32.928Z,47
2018-09-02T16:23:35.366Z,48
2018-09-02T16:28:37.852Z,42
2018-09-02T16:33:40.281Z,39
2018-09-02T16:38:42.741Z,36
2018-09-02T16:43:45.219Z,43
2018-09-02T16:48:47.942Z,40
2018-09-02T16:53:50.221Z,46
2018-09-02T16:58:52.629Z,45
2018-09-02T17:03:55.078Z,45
2018-09-02T17:08:57.510Z,42
2018-09-02T17:14:00.037Z,42
2018-09-02T17:19:02.430Z,49
2018-09-02T17:24:04.884Z,48
2018-09-02T17:29:07.501Z,49
2018-09-02T17:34:09.801Z,50
2018-09-02T17:39:12.276Z,53
2018-09-02T17:44:14.784Z,52
2018-09-02T17:49:17.209Z,49
2018-09-02T17:54:19.643Z,47
2018-09-02T17:59:22.124Z,43
2018-09-02T18:04:24.532Z,42
2018-09-02T18:09:26.994Z,52
2018-09-02T18:14:29.935Z,46
2018-09-02T18:19:31.898Z,45
2018-09-02T18:24:34.365Z,44
2018-09-02T18:29:36.838Z,44
2018-09-02T18:34:39.302Z,41
2018-09-02T18:39:41.874Z,41
2018-09-02T18:44:44.278Z,39
2018-09-02T18:49:46.810Z,40
2018-09-02T18:54:49.578Z,44
2018-09-02T18:59:51.583Z,43
2018-09-02T19:04:54.144Z,41
2018-09-02T19:09:56.574Z,40
2018-09-02T19:14:59.084Z,36
2018-09-02T19:20:01.747Z,39
2018-09-02T19:25:03.875Z,40
2018-09-02T19:30:07.253Z,38
2018-09-02T19:35:08.776Z,41
2018-09-02T19:40:11.265Z,40
2018-09-02T19:45:13.698Z,38
2018-09-02T19:50:16.160Z,40
2018-09-02T19:55:18.635Z,38
2018-09-02T20:00:21.157Z,39
2018-09-02T20:05:23.557Z,40
2018-09-02T20:10:25.999Z,40
2018-09-02T20:15:28.450Z,43
2018-09-02T20:20:31.293Z,45
2018-09-02T20:25:33.361Z,45
2018-09-02T20:30:35.815Z,45
2018-09-02T20:35:38.296Z,42
2018-09-02T20:40:40.760Z,45
2018-09-02T20:45:43.192Z,47
2018-09-02T20:50:45.665Z,49
2018-09-02T20:55:48.108Z,50
2018-09-02T21:00:50.564Z,51
2018-09-02T21:05:53.199Z,49
2018-09-02T21:10:55.490Z,50
2018-09-02T21:15:58.332Z,50
2018-09-02T21:21:00.561Z,56
2018-09-02T21:26:02.931Z,55
2018-09-02T21:31:05.556Z,53
2018-09-02T21:36:07.815Z,49
2018-09-02T21:41:10.229Z,51
2018-09-02T21:46:12.695Z,49
2018-09-02T21:51:15.214Z,50
2018-09-02T21:56:17.618Z,51
2018-09-02T22:01:20.329Z,47
2018-09-02T22:06:22.798Z,46
2018-09-02T22:11:25.302Z,49
2018-09-02T22:16:27.571Z,46
2018-09-02T22:21:29.900Z,48
2018-09-02T22:26:32.355Z,48
2018-09-02T22:31:34.818Z,49
2018-09-02T22:36:37.288Z,50
2018-09-02T22:41:39.959Z,50
2018-09-02T22:46:42.183Z,50
2018-09-02T22:51:44.632Z,49
2018-09-02T22:56:47.116Z,51
2018-09-02T23:01:49.684Z,50
2018-09-02T23:06:52.444Z,53
2018-09-02T23:11:54.499Z,49
2018-09-02T23:16:57.120Z,58
2018-09-02T23:21:59.580Z,56
2018-09-02T23:27:02.010Z,57
2018-09-02T23:32:04.612Z,55
2018-09-02T23:37:06.774Z,57
2018-09-02T23:42:09.707Z,63
2018-09-02T23:47:11.698Z,67
2018-09-02T23:52:14.346Z,73
2018-09-02T23:57:17.096Z,67
